Terminal Aerodrome Forecast
Issued by NWS

Home | Current Version | Previous Version | Text Only | Print | Product List | Glossary On
Versions: 1 2 3 4 5 6 7 8 9 10 11 12 13 14 15 16 17 18 19
847
FTUS42 KTBW 192328
TAFPIE
TAF
KPIE 192328Z 2000/2024 22008KT P6SM SCT250
     FM200900 18005KT 5SM BR SCT010 BKN120
      TEMPO 2009/2013 3SM BR BKN010
     FM201400 17006KT P6SM SCT025 BKN120
     FM201600 21010G15KT P6SM SCT035 BKN120=

USA.gov is the U.S. government's official web portal to all federal, state and local government web resources and services.